Time;durP1;ratioP1;P1;durP2;ratioP2;P2;SDS_P1;SDS_P2;PMS_P1;PMS_P2;Temp;Humidity;BMP_temperature;BMP_pressure;BME280_temperature;BME280_humidity;BME280_pressure;Samples;Min_cycle;Max_cycle;Signal;HPM_P1;HPM_P2
2021/07/17 00:00:15;;;;;;;16.92;14.05;;;27.60;73.00;;;;;;5054182;28;20033;-72
2021/07/17 00:02:42;;;;;;;14.02;12.63;;;27.60;73.40;;;;;;5053918;28;20037;-73
2021/07/17 00:05:13;;;;;;;15.85;12.82;;;27.60;73.50;;;;;;5054634;28;20099;-71
2021/07/17 00:07:39;;;;;;;19.60;14.07;;;27.60;73.70;;;;;;5054030;28;20095;-72
2021/07/17 00:10:27;;;;;;;15.35;13.75;;;27.60;74.00;;;;;;5053954;28;20029;-72
2021/07/17 00:12:53;;;;;;;15.30;12.63;;;27.60;74.10;;;;;;5050112;28;20131;-72
2021/07/17 00:15:23;;;;;;;15.75;14.05;;;27.60;74.00;;;;;;5054230;28;20065;-72
2021/07/17 00:17:48;;;;;;;16.88;13.23;;;27.60;74.50;;;;;;5053822;28;20033;-72
2021/07/17 00:20:15;;;;;;;18.40;14.15;;;27.60;74.50;;;;;;5053853;28;20039;-71
2021/07/17 00:22:41;;;;;;;16.17;14.25;;;27.50;74.70;;;;;;5053327;28;20029;-72
2021/07/17 00:25:09;;;;;;;16.58;13.93;;;27.50;74.70;;;;;;5052488;28;20124;-72
2021/07/17 00:27:35;;;;;;;17.38;14.07;;;27.40;74.80;;;;;;5053476;28;20029;-72
2021/07/17 00:30:01;;;;;;;16.70;14.45;;;27.40;74.90;;;;;;5054043;28;20021;-72
2021/07/17 00:32:28;;;;;;;17.58;14.25;;;27.40;74.90;;;;;;5069266;28;20107;-72
2021/07/17 00:34:53;;;;;;;14.75;13.25;;;27.40;74.90;;;;;;5053683;28;20029;-72
2021/07/17 00:37:19;;;;;;;18.52;13.77;;;27.40;74.80;;;;;;5053722;28;20029;-72
2021/07/17 00:39:45;;;;;;;18.27;15.18;;;27.30;74.90;;;;;;5053608;28;20494;-72
2021/07/17 00:42:10;;;;;;;15.73;13.68;;;27.30;75.00;;;;;;5054249;28;20040;-72
2021/07/17 00:44:36;;;;;;;17.98;13.65;;;27.30;75.00;;;;;;5053834;28;20029;-72
2021/07/17 00:47:02;;;;;;;15.75;12.80;;;27.30;74.90;;;;;;5053484;28;20152;-72
2021/07/17 00:49:32;;;;;;;16.23;14.52;;;27.30;74.70;;;;;;5053494;28;20410;-72
2021/07/17 00:51:58;;;;;;;17.55;15.00;;;27.30;74.70;;;;;;5054012;28;20036;-72
2021/07/17 00:54:26;;;;;;;16.30;13.90;;;27.30;74.70;;;;;;5052608;28;20495;-72
2021/07/17 00:56:53;;;;;;;18.00;14.00;;;27.30;74.60;;;;;;5053463;28;20096;-72
2021/07/17 00:59:22;;;;;;;16.52;14.73;;;27.30;74.60;;;;;;5053325;28;20033;-72
2021/07/17 01:01:52;;;;;;;15.90;14.20;;;27.30;74.60;;;;;;5053847;28;20422;-72
2021/07/17 01:04:20;;;;;;;16.35;14.07;;;27.30;74.60;;;;;;5053339;28;20112;-72
2021/07/17 01:06:46;;;;;;;15.98;14.02;;;27.30;74.60;;;;;;5053309;28;20474;-72
2021/07/17 01:09:11;;;;;;;17.17;13.70;;;27.20;74.60;;;;;;5053061;28;20025;-72
2021/07/17 01:11:40;;;;;;;15.70;13.80;;;27.20;74.60;;;;;;5053298;28;20068;-72
2021/07/17 01:14:06;;;;;;;16.10;14.27;;;27.20;74.70;;;;;;5053249;28;20029;-72
2021/07/17 01:16:33;;;;;;;15.55;13.85;;;27.10;74.80;;;;;;5053265;28;20021;-72
2021/07/17 01:18:59;;;;;;;20.88;14.73;;;27.10;75.00;;;;;;5053206;28;20033;-72
2021/07/17 01:21:27;;;;;;;18.73;14.43;;;27.10;75.10;;;;;;5053240;28;20422;-72
2021/07/17 01:23:53;;;;;;;16.85;14.43;;;27.10;75.30;;;;;;5053125;28;20372;-72
2021/07/17 01:26:19;;;;;;;17.75;14.25;;;27.00;75.20;;;;;;5053120;28;20029;-72
2021/07/17 01:28:44;;;;;;;16.75;13.90;;;27.00;75.20;;;;;;5053452;28;20036;-72
2021/07/17 01:31:10;;;;;;;15.93;14.23;;;27.00;75.30;;;;;;5052871;28;20079;-72
2021/07/17 01:33:36;;;;;;;15.52;13.90;;;27.00;75.30;;;;;;5052832;28;20082;-72
2021/07/17 01:36:02;;;;;;;16.13;13.82;;;27.00;75.30;;;;;;5052998;28;20029;-72
2021/07/17 01:38:28;;;;;;;18.13;14.05;;;27.00;75.30;;;;;;5052191;28;20029;-72
2021/07/17 01:40:54;;;;;;;17.00;14.32;;;27.00;75.30;;;;;;5068524;28;20025;-72
2021/07/17 01:43:20;;;;;;;15.32;13.68;;;27.00;75.30;;;;;;5053206;28;20509;-72
2021/07/17 01:45:46;;;;;;;15.15;13.55;;;27.00;75.30;;;;;;5052990;28;20053;-72
2021/07/17 01:48:13;;;;;;;15.18;13.57;;;27.00;75.30;;;;;;5052821;28;20057;-72
2021/07/17 01:50:40;;;;;;;19.77;14.55;;;27.00;75.30;;;;;;5053750;28;20116;-72
2021/07/17 01:53:08;;;;;;;16.00;13.23;;;27.00;75.30;;;;;;5052915;28;20032;-72
2021/07/17 01:55:34;;;;;;;16.45;14.68;;;27.00;75.30;;;;;;5053243;28;20095;-72
2021/07/17 01:58:00;;;;;;;21.58;13.85;;;27.00;75.40;;;;;;5053152;28;20025;-72
2021/07/17 02:00:27;;;;;;;17.55;14.05;;;27.00;75.30;;;;;;5053199;28;20053;-72
2021/07/17 02:02:54;;;;;;;17.77;14.38;;;27.00;75.20;;;;;;5052774;28;20029;-72
2021/07/17 02:05:20;;;;;;;17.92;15.20;;;27.00;75.10;;;;;;5052739;28;20061;-72
2021/07/17 02:07:47;;;;;;;15.73;14.10;;;27.00;75.20;;;;;;5054990;28;20095;-72
2021/07/17 02:10:24;;;;;;;16.75;14.20;;;27.00;75.20;;;;;;5056343;28;20028;-72
2021/07/17 02:13:02;;;;;;;22.00;16.20;;;27.00;75.20;;;;;;5056642;28;20029;-72
2021/07/17 02:15:28;;;;;;;19.48;14.85;;;26.90;75.20;;;;;;5056527;28;20021;-72
2021/07/17 02:17:55;;;;;;;15.98;13.95;;;26.90;75.30;;;;;;5055969;28;20471;-72
2021/07/17 02:20:21;;;;;;;18.33;15.35;;;26.90;75.90;;;;;;5056219;28;20167;-73
2021/07/17 02:22:47;;;;;;;18.23;14.55;;;26.90;75.30;;;;;;5056117;28;20029;-72
2021/07/17 02:25:12;;;;;;;16.50;14.50;;;26.80;75.30;;;;;;5055991;28;20459;-72
2021/07/17 02:27:38;;;;;;;18.17;13.63;;;26.80;75.40;;;;;;5055733;28;20126;-73
2021/07/17 02:30:05;;;;;;;18.05;14.70;;;26.80;75.40;;;;;;5055721;28;20053;-72
2021/07/17 02:32:30;;;;;;;16.40;13.88;;;26.80;75.40;;;;;;5055930;28;20033;-72
2021/07/17 02:34:56;;;;;;;16.13;13.00;;;26.80;75.30;;;;;;5055960;28;20032;-73
2021/07/17 02:37:22;;;;;;;17.17;14.35;;;26.80;75.30;;;;;;5056385;28;20025;-72
2021/07/17 02:39:48;;;;;;;15.60;13.80;;;26.90;75.30;;;;;;5055506;28;20506;-72
2021/07/17 02:42:14;;;;;;;18.42;13.95;;;26.90;75.30;;;;;;5055794;28;20025;-72
2021/07/17 02:44:39;;;;;;;17.83;14.13;;;26.90;75.30;;;;;;5055741;28;20055;-72
2021/07/17 02:47:05;;;;;;;17.95;15.23;;;26.90;75.40;;;;;;5055761;28;20056;-72
2021/07/17 02:49:31;;;;;;;15.95;14.25;;;26.90;75.60;;;;;;5055389;28;20028;-72
2021/07/17 02:51:57;;;;;;;15.77;14.13;;;26.90;75.60;;;;;;5055506;28;20029;-72
2021/07/17 02:54:23;;;;;;;16.38;14.10;;;26.90;75.50;;;;;;5056734;28;20036;-72
2021/07/17 02:56:49;;;;;;;21.33;14.77;;;27.00;75.50;;;;;;5055787;28;20375;-72
2021/07/17 02:59:15;;;;;;;17.05;14.63;;;27.00;75.50;;;;;;5054235;28;20506;-72
2021/07/17 03:01:41;;;;;;;17.88;14.50;;;27.00;75.40;;;;;;5055163;28;20029;-72
2021/07/17 03:04:06;;;;;;;16.48;14.68;;;27.00;75.30;;;;;;5055324;28;20123;-72
2021/07/17 03:06:32;;;;;;;16.27;14.27;;;27.00;75.30;;;;;;5055294;28;20065;-72
2021/07/17 03:08:58;;;;;;;18.88;14.38;;;27.00;75.20;;;;;;5056010;28;20029;-72
2021/07/17 03:11:24;;;;;;;18.58;14.95;;;27.10;75.10;;;;;;5055270;28;20352;-72
2021/07/17 03:13:49;;;;;;;18.05;13.15;;;27.10;75.00;;;;;;5055234;28;20025;-72
2021/07/17 03:16:16;;;;;;;14.90;13.40;;;27.10;74.80;;;;;;5055583;28;20140;-72
2021/07/17 03:18:43;;;;;;;17.48;13.68;;;27.20;74.60;;;;;;5054428;28;20035;-72
2021/07/17 03:21:09;;;;;;;14.27;12.77;;;27.20;74.20;;;;;;5054772;28;20025;-72
2021/07/17 03:23:35;;;;;;;17.52;13.55;;;27.30;73.90;;;;;;5054977;28;20055;-72
2021/07/17 03:26:01;;;;;;;14.15;12.75;;;27.30;73.60;;;;;;5053381;28;20029;-72
2021/07/17 03:28:26;;;;;;;15.20;13.38;;;27.40;73.30;;;;;;5054032;28;20025;-72
2021/07/17 03:30:52;;;;;;;14.98;12.60;;;27.40;73.10;;;;;;5054449;28;20032;-73
2021/07/17 03:33:18;;;;;;;15.73;13.30;;;27.40;73.00;;;;;;5055096;28;20093;-72
2021/07/17 03:35:44;;;;;;;15.77;13.32;;;27.50;72.80;;;;;;5054769;28;20081;-72
2021/07/17 03:38:10;;;;;;;16.45;12.95;;;27.50;72.60;;;;;;5054762;28;20029;-72
2021/07/17 03:40:36;;;;;;;15.90;13.15;;;27.50;72.50;;;;;;5053045;28;20028;-72
2021/07/17 03:43:01;;;;;;;15.55;13.38;;;27.60;72.40;;;;;;5053114;28;20036;-73
2021/07/17 03:45:27;;;;;;;16.80;13.32;;;27.60;72.30;;;;;;5054365;28;20107;-72
2021/07/17 03:47:53;;;;;;;15.80;13.77;;;27.60;72.10;;;;;;5070645;28;20025;-72
2021/07/17 03:50:19;;;;;;;16.58;13.52;;;27.70;71.90;;;;;;5054353;28;20493;-73
2021/07/17 03:52:45;;;;;;;16.40;13.90;;;27.80;71.80;;;;;;5054364;28;20087;-72
2021/07/17 03:55:11;;;;;;;14.85;12.70;;;27.80;71.70;;;;;;5054343;28;20029;-72
2021/07/17 03:57:36;;;;;;;14.10;12.57;;;27.80;71.60;;;;;;5054367;28;20027;-72
2021/07/17 04:00:04;;;;;;;16.92;14.15;;;27.90;71.50;;;;;;5054092;28;20387;-73
2021/07/17 04:02:39;;;;;;;15.25;12.82;;;28.00;71.40;;;;;;5054066;28;20029;-72
2021/07/17 04:05:05;;;;;;;16.58;13.65;;;28.00;71.40;;;;;;5054101;28;20125;-73
2021/07/17 04:07:31;;;;;;;17.65;14.95;;;28.00;71.30;;;;;;5054347;28;20021;-72
2021/07/17 04:09:56;;;;;;;19.55;14.85;;;28.10;71.40;;;;;;5054285;28;20025;-72
2021/07/17 04:12:22;;;;;;;16.92;15.13;;;28.10;71.50;;;;;;5054047;28;20096;-72
2021/07/17 04:14:48;;;;;;;19.10;14.15;;;28.20;71.70;;;;;;5054188;28;20033;-72
2021/07/17 04:17:13;;;;;;;18.92;15.43;;;28.20;71.80;;;;;;5053867;28;20025;-72
2021/07/17 04:19:39;;;;;;;18.65;15.52;;;28.20;72.00;;;;;;5053581;28;20112;-73
2021/07/17 04:22:05;;;;;;;18.30;14.82;;;28.30;72.20;;;;;;5053883;28;20025;-73
2021/07/17 04:24:30;;;;;;;18.55;15.90;;;28.30;72.20;;;;;;5054067;28;20048;-72
2021/07/17 04:26:56;;;;;;;16.73;14.93;;;28.30;72.30;;;;;;5054228;28;20045;-72
2021/07/17 04:29:22;;;;;;;20.20;16.23;;;28.40;72.40;;;;;;5052884;28;20159;-71
2021/07/17 04:31:47;;;;;;;18.17;15.07;;;28.40;72.40;;;;;;5053928;28;20036;-72
2021/07/17 04:34:13;;;;;;;16.95;15.00;;;28.40;72.20;;;;;;5053426;28;20386;-72
2021/07/17 04:36:39;;;;;;;17.02;13.80;;;28.50;72.00;;;;;;5053970;28;20029;-72
2021/07/17 04:39:05;;;;;;;20.38;13.50;;;28.50;71.90;;;;;;5053787;28;20040;-72
2021/07/17 04:41:30;;;;;;;18.88;12.93;;;28.60;71.80;;;;;;5054068;28;20036;-73
2021/07/17 04:43:57;;;;;;;18.63;14.23;;;28.60;71.40;;;;;;5053085;28;20112;-73
2021/07/17 04:46:23;;;;;;;17.75;15.02;;;28.70;71.20;;;;;;5053042;28;20039;-71
2021/07/17 04:48:49;;;;;;;15.40;13.60;;;28.70;71.00;;;;;;5053232;28;20021;-72
2021/07/17 04:51:14;;;;;;;14.73;12.65;;;28.70;70.60;;;;;;5053500;28;20033;-72
2021/07/17 04:53:40;;;;;;;16.83;12.75;;;28.70;70.30;;;;;;5053748;28;20036;-72
2021/07/17 04:56:06;;;;;;;13.95;12.40;;;28.70;70.20;;;;;;5068866;28;20029;-72
2021/07/17 04:58:31;;;;;;;15.88;12.65;;;28.80;69.90;;;;;;5053806;28;20025;-72
2021/07/17 05:00:57;;;;;;;12.88;11.35;;;28.80;69.70;;;;;;5053274;28;20025;-73
2021/07/17 05:03:23;;;;;;;14.75;12.10;;;28.90;69.50;;;;;;5053014;28;20028;-72
2021/07/17 05:05:48;;;;;;;14.75;12.23;;;28.90;69.30;;;;;;5053206;28;20033;-72
2021/07/17 05:08:14;;;;;;;13.00;11.45;;;28.90;69.10;;;;;;5053795;28;20028;-73
2021/07/17 05:10:40;;;;;;;13.68;12.20;;;29.00;68.90;;;;;;5053293;28;20452;-72
2021/07/17 05:13:13;;;;;;;14.65;11.98;;;29.00;68.80;;;;;;5054101;28;20039;-72
2021/07/17 05:15:39;;;;;;;17.15;12.45;;;29.10;68.50;;;;;;5051784;28;20029;-71
2021/07/17 05:18:05;;;;;;;13.95;12.35;;;29.10;68.10;;;;;;5053301;28;20059;-72
2021/07/17 05:20:31;;;;;;;13.50;11.55;;;29.10;68.60;;;;;;5053544;28;20056;-72
2021/07/17 05:22:57;;;;;;;15.13;11.80;;;29.10;67.80;;;;;;5053130;28;20025;-73
2021/07/17 05:25:23;;;;;;;15.45;11.77;;;29.10;67.60;;;;;;5053161;28;20099;-72
2021/07/17 05:27:49;;;;;;;16.40;12.52;;;29.20;67.50;;;;;;5053328;28;20025;-72
2021/07/17 05:30:15;;;;;;;13.75;12.00;;;29.20;67.40;;;;;;5053721;28;20048;-73
2021/07/17 05:32:40;;;;;;;15.75;12.88;;;29.20;67.40;;;;;;5053676;28;20439;-73
2021/07/17 05:35:07;;;;;;;15.15;11.95;;;29.30;67.40;;;;;;5053272;28;20064;-73
2021/07/17 05:37:32;;;;;;;15.88;11.52;;;29.30;67.10;;;;;;5051838;28;20027;-73
2021/07/17 05:39:58;;;;;;;12.98;11.57;;;29.30;67.00;;;;;;5053050;28;20491;-72
2021/07/17 05:42:24;;;;;;;13.68;11.38;;;29.40;66.90;;;;;;5056463;28;20109;-72
2021/07/17 05:44:50;;;;;;;12.77;11.23;;;29.50;66.70;;;;;;5056774;28;20467;-72
2021/07/17 05:47:16;;;;;;;14.32;11.80;;;29.60;66.50;;;;;;5057004;28;20028;-73
2021/07/17 05:49:42;;;;;;;13.35;11.40;;;29.60;66.30;;;;;;5057111;28;20029;-72
2021/07/17 05:52:08;;;;;;;14.10;11.70;;;29.70;66.10;;;;;;5056640;28;20155;-73
2021/07/17 05:54:37;;;;;;;12.93;11.63;;;29.70;65.70;;;;;;5057156;28;20064;-72
2021/07/17 05:57:03;;;;;;;13.43;11.65;;;29.80;65.70;;;;;;5056538;28;20032;-72
2021/07/17 05:59:29;;;;;;;13.32;11.70;;;29.80;65.60;;;;;;5071969;28;20032;-73
2021/07/17 06:01:54;;;;;;;16.08;12.38;;;29.90;65.70;;;;;;5056827;28;20020;-72
2021/07/17 06:04:20;;;;;;;14.43;12.93;;;30.00;65.70;;;;;;5055376;28;20463;-72
2021/07/17 06:06:46;;;;;;;14.18;12.57;;;30.00;66.10;;;;;;5071646;28;20115;-73
2021/07/17 06:09:11;;;;;;;17.67;13.00;;;30.20;65.40;;;;;;5056038;28;20025;-73
2021/07/17 06:11:37;;;;;;;14.07;11.63;;;30.20;64.90;;;;;;5056142;28;20026;-72
2021/07/17 06:14:03;;;;;;;12.50;11.18;;;30.20;64.80;;;;;;5071742;28;20033;-72
2021/07/17 06:16:28;;;;;;;16.65;12.20;;;30.20;64.80;;;;;;5056274;28;20029;-74
2021/07/17 06:18:54;;;;;;;18.52;12.85;;;30.20;64.60;;;;;;5055834;28;20047;-71
2021/07/17 06:21:20;;;;;;;13.27;11.85;;;30.30;64.60;;;;;;5054892;28;20029;-72
2021/07/17 06:23:46;;;;;;;18.67;12.70;;;30.30;64.60;;;;;;5056370;28;20033;-72
2021/07/17 06:26:11;;;;;;;13.15;11.32;;;30.40;64.60;;;;;;5055977;28;20029;-72
2021/07/17 06:28:38;;;;;;;14.13;12.27;;;30.40;64.30;;;;;;5056466;28;20115;-73
2021/07/17 06:31:03;;;;;;;13.35;11.98;;;30.40;64.20;;;;;;5056005;28;20037;-72
2021/07/17 06:33:29;;;;;;;13.25;11.57;;;30.50;64.10;;;;;;5055546;28;20025;-73
2021/07/17 06:35:55;;;;;;;13.75;12.32;;;30.60;64.20;;;;;;5055850;28;20033;-72
2021/07/17 06:38:22;;;;;;;14.70;12.55;;;30.70;64.10;;;;;;5055844;28;20070;-73
2021/07/17 06:40:47;;;;;;;15.20;12.20;;;30.70;64.00;;;;;;5055125;28;20060;-72
2021/07/17 06:43:13;;;;;;;13.43;12.05;;;30.70;63.80;;;;;;5055323;28;20064;-73
2021/07/17 06:45:39;;;;;;;14.75;12.68;;;30.80;63.80;;;;;;5054210;28;20040;-73
2021/07/17 06:48:05;;;;;;;13.95;12.50;;;30.80;63.70;;;;;;5055488;28;20033;-73
2021/07/17 06:50:31;;;;;;;14.27;12.48;;;30.90;63.70;;;;;;5055511;28;20025;-75
2021/07/17 06:52:56;;;;;;;16.98;13.07;;;31.00;63.20;;;;;;5054767;28;20041;-73
2021/07/17 06:55:22;;;;;;;13.30;11.88;;;31.10;63.00;;;;;;5055795;28;20033;-73
2021/07/17 06:57:48;;;;;;;12.93;11.63;;;31.10;63.00;;;;;;5055199;28;20032;-72
2021/07/17 07:00:15;;;;;;;14.10;11.73;;;31.10;63.00;;;;;;5055277;28;20029;-73
2021/07/17 07:02:42;;;;;;;13.40;12.00;;;31.20;62.90;;;;;;5070476;28;20050;-73
2021/07/17 07:05:10;;;;;;;17.70;11.98;;;31.20;62.90;;;;;;5055261;28;20100;-72
2021/07/17 07:07:37;;;;;;;15.57;13.13;;;31.20;62.60;;;;;;5055185;28;20028;-72
2021/07/17 07:10:07;;;;;;;14.00;12.60;;;31.30;62.60;;;;;;5055278;28;20021;-73
2021/07/17 07:12:37;;;;;;;16.88;13.00;;;31.40;62.60;;;;;;5055667;28;20032;-74
2021/07/17 07:15:07;;;;;;;13.48;12.07;;;31.50;62.40;;;;;;5055221;28;20029;-72
2021/07/17 07:17:33;;;;;;;14.82;12.18;;;31.50;62.30;;;;;;5055113;28;20383;-73
2021/07/17 07:19:59;;;;;;;16.58;11.82;;;31.70;62.40;;;;;;5055211;28;20025;-73
2021/07/17 07:22:26;;;;;;;14.32;11.90;;;31.80;61.90;;;;;;5054904;28;20460;-73
2021/07/17 07:24:52;;;;;;;12.40;11.15;;;31.90;61.50;;;;;;5055047;28;20474;-73
2021/07/17 07:27:18;;;;;;;13.43;11.00;;;31.90;60.90;;;;;;5055008;28;20078;-74
2021/07/17 07:29:44;;;;;;;12.68;11.32;;;32.00;60.60;;;;;;5054840;28;20113;-73
2021/07/17 07:32:09;;;;;;;13.27;11.35;;;32.10;60.60;;;;;;5054947;28;20360;-73
2021/07/17 07:34:35;;;;;;;13.13;10.95;;;32.10;60.40;;;;;;5053407;28;20433;-73
2021/07/17 07:37:01;;;;;;;14.05;11.18;;;32.20;60.40;;;;;;5054934;28;20531;-74
2021/07/17 07:39:26;;;;;;;14.25;10.43;;;32.30;60.10;;;;;;5054836;28;20112;-72
2021/07/17 07:41:52;;;;;;;13.10;11.80;;;32.40;60.00;;;;;;5054706;28;20064;-73
2021/07/17 07:44:18;;;;;;;11.48;10.38;;;32.40;59.70;;;;;;5054681;28;20037;-73
2021/07/17 07:46:44;;;;;;;11.85;10.63;;;32.40;59.60;;;;;;5053503;28;20403;-72
2021/07/17 07:49:10;;;;;;;11.80;10.70;;;32.40;59.40;;;;;;5054277;28;20112;-72
2021/07/17 07:51:35;;;;;;;12.75;11.55;;;32.50;59.30;;;;;;5054206;28;20379;-72
2021/07/17 07:54:01;;;;;;;12.45;11.15;;;32.50;59.20;;;;;;5052853;28;20049;-73
2021/07/17 07:56:27;;;;;;;13.98;10.85;;;32.60;59.30;;;;;;5054406;28;20037;-72
2021/07/17 07:58:53;;;;;;;11.82;10.63;;;32.60;59.10;;;;;;5054527;28;20196;-74
2021/07/17 08:01:18;;;;;;;14.02;10.80;;;32.70;59.00;;;;;;5054618;28;20459;-72
2021/07/17 08:03:44;;;;;;;19.00;10.75;;;32.80;58.70;;;;;;5054175;28;20112;-72
2021/07/17 08:06:10;;;;;;;11.63;10.50;;;32.90;58.60;;;;;;5054233;28;20088;-72
2021/07/17 08:08:36;;;;;;;11.75;10.45;;;33.00;58.40;;;;;;5054229;28;20028;-72
2021/07/17 08:11:02;;;;;;;11.63;10.55;;;33.10;58.10;;;;;;5054105;28;20025;-73
2021/07/17 08:13:28;;;;;;;12.40;10.15;;;33.20;57.70;;;;;;5053943;28;20029;-72
2021/07/17 08:15:55;;;;;;;11.05;9.90;;;33.30;57.30;;;;;;5054542;28;20033;-73
2021/07/17 08:18:21;;;;;;;12.82;9.82;;;33.40;56.90;;;;;;5053945;28;20033;-73
2021/07/17 08:20:46;;;;;;;10.57;9.00;;;33.50;56.70;;;;;;5054682;28;20025;-73
2021/07/17 08:23:12;;;;;;;11.75;9.77;;;33.70;56.70;;;;;;5054199;28;20067;-72
2021/07/17 08:25:38;;;;;;;10.82;9.15;;;33.70;56.40;;;;;;5052498;28;20478;-72
2021/07/17 08:28:04;;;;;;;12.88;9.45;;;33.90;56.20;;;;;;5053767;28;20115;-72
2021/07/17 08:30:32;;;;;;;11.50;8.90;;;34.10;55.80;;;;;;5053908;28;20432;-72
2021/07/17 08:32:58;;;;;;;11.27;8.63;;;34.20;55.30;;;;;;5053464;28;20040;-73
2021/07/17 08:35:24;;;;;;;9.75;8.27;;;34.40;54.90;;;;;;5052555;28;20025;-72
2021/07/17 08:37:50;;;;;;;11.95;9.15;;;34.50;54.60;;;;;;5053702;28;20025;-73
2021/07/17 08:40:15;;;;;;;10.15;9.05;;;34.60;54.40;;;;;;5054018;28;20104;-73
2021/07/17 08:42:47;;;;;;;10.35;9.30;;;34.80;54.30;;;;;;5053382;28;20033;-73
2021/07/17 08:45:14;;;;;;;11.73;9.40;;;35.00;54.10;;;;;;5053360;28;20040;-73
2021/07/17 08:47:42;;;;;;;9.25;8.35;;;35.20;53.70;;;;;;5053533;28;20380;-73
2021/07/17 08:50:22;;;;;;;9.50;8.27;;;35.50;53.30;;;;;;5053380;28;20028;-72
2021/07/17 08:52:50;;;;;;;8.88;8.02;;;35.60;52.80;;;;;;5053691;28;20044;-72
2021/07/17 08:55:16;;;;;;;9.80;8.45;;;35.80;52.10;;;;;;5054043;28;20025;-73
2021/07/17 08:57:44;;;;;;;9.70;8.55;;;36.00;51.70;;;;;;5053111;28;20045;-74
2021/07/17 09:00:37;;;;;;;9.18;8.27;;;36.30;51.10;;;;;;5053076;28;20032;-72
2021/07/17 09:03:09;;;;;;;10.48;8.18;;;36.40;50.60;;;;;;5052309;28;20483;-73
2021/07/17 09:05:42;;;;;;;10.93;8.27;;;36.60;50.50;;;;;;5053609;28;20037;-72
2021/07/17 09:08:09;;;;;;;11.23;8.45;;;36.80;50.00;;;;;;5053187;28;20025;-72
2021/07/17 09:10:47;;;;;;;8.70;7.90;;;37.00;50.00;;;;;;5053715;28;20044;-72
2021/07/17 09:13:30;;;;;;;9.88;8.88;;;37.20;49.80;;;;;;5053892;28;20328;-72
2021/07/17 09:16:11;;;;;;;10.27;8.10;;;37.40;49.20;;;;;;5053801;28;20459;-73
2021/07/17 09:18:44;;;;;;;9.38;8.38;;;37.70;48.80;;;;;;5056079;28;20029;-73
2021/07/17 09:21:13;;;;;;;10.80;8.23;;;38.00;48.20;;;;;;5057189;28;20207;-74
2021/07/17 09:23:43;;;;;;;9.40;7.95;;;38.20;47.80;;;;;;5057455;28;20029;-72
2021/07/17 09:26:15;;;;;;;9.32;7.55;;;38.40;47.40;;;;;;5057046;28;20025;-74
2021/07/17 09:28:41;;;;;;;8.43;7.35;;;38.60;47.20;;;;;;5057306;28;20029;-74
2021/07/17 09:31:08;;;;;;;8.65;7.60;;;38.90;47.00;;;;;;5057193;28;20079;-74
2021/07/17 09:33:34;;;;;;;11.88;8.13;;;39.10;46.50;;;;;;5056634;28;20135;-72
2021/07/17 09:36:00;;;;;;;13.25;7.72;;;39.30;46.10;;;;;;5072921;28;20025;-73
2021/07/17 09:38:32;;;;;;;8.55;7.75;;;39.50;45.90;;;;;;5056763;28;20032;-71
2021/07/17 09:41:04;;;;;;;7.72;7.03;;;39.60;45.60;;;;;;5056794;28;20040;-72
2021/07/17 09:43:42;;;;;;;8.25;7.55;;;39.70;45.70;;;;;;5056853;28;20060;-71
2021/07/17 09:46:26;;;;;;;8.80;7.90;;;40.00;45.40;;;;;;5056611;28;20489;-73
2021/07/17 09:48:55;;;;;;;9.18;6.75;;;40.20;44.80;;;;;;5056620;28;20021;-74
2021/07/17 09:51:24;;;;;;;8.32;7.35;;;40.50;44.20;;;;;;5056996;28;20029;-74
2021/07/17 09:53:52;;;;;;;8.15;7.15;;;40.80;43.60;;;;;;5056532;28;20084;-73
2021/07/17 09:56:22;;;;;;;7.18;6.35;;;41.00;43.20;;;;;;5072119;28;20037;-73
2021/07/17 09:58:48;;;;;;;9.40;7.35;;;41.30;42.90;;;;;;5056424;28;20028;-73
2021/07/17 10:01:23;;;;;;;9.75;6.78;;;41.50;43.50;;;;;;5056179;28;20166;-73
2021/07/17 10:03:52;;;;;;;9.35;7.45;;;41.70;42.10;;;;;;5056457;28;20044;-72
2021/07/17 10:06:33;;;;;;;8.35;7.07;;;41.90;42.00;;;;;;5056473;28;20025;-73
2021/07/17 10:09:02;;;;;;;7.75;7.10;;;42.20;42.00;;;;;;5056358;28;20037;-73
2021/07/17 10:11:28;;;;;;;8.63;6.55;;;42.40;41.80;;;;;;5056528;28;20082;-73
2021/07/17 10:13:55;;;;;;;7.60;6.90;;;42.40;41.50;;;;;;5056248;28;20094;-73
2021/07/17 10:16:26;;;;;;;7.97;7.18;;;42.50;40.80;;;;;;5071697;28;20029;-73
2021/07/17 10:18:55;;;;;;;9.88;7.28;;;42.50;40.70;;;;;;5056327;28;20410;-74
2021/07/17 10:21:22;;;;;;;8.05;7.25;;;42.60;40.70;;;;;;5056316;28;20083;-73
2021/07/17 10:23:48;;;;;;;8.98;7.70;;;42.70;40.80;;;;;;5055891;28;20044;-73
2021/07/17 10:26:14;;;;;;;8.07;7.22;;;42.90;40.80;;;;;;5056006;28;20475;-75
2021/07/17 10:28:40;;;;;;;8.00;7.20;;;43.10;40.60;;;;;;5054504;28;20027;-74
2021/07/17 10:31:06;;;;;;;8.20;7.40;;;43.30;40.50;;;;;;5056713;28;20455;-72
2021/07/17 10:33:33;;;;;;;7.85;7.10;;;43.40;40.40;;;;;;5056586;28;20036;-74
2021/07/17 10:36:14;;;;;;;7.78;6.88;;;43.50;40.20;;;;;;5056529;28;20112;-74
2021/07/17 10:38:44;;;;;;;8.52;7.10;;;43.70;40.10;;;;;;5055955;28;20071;-74
2021/07/17 10:41:16;;;;;;;7.28;6.57;;;43.90;39.80;;;;;;5055848;28;20029;-73
2021/07/17 10:43:48;;;;;;;7.40;6.20;;;44.10;39.60;;;;;;5055734;28;20043;-74
2021/07/17 10:46:32;;;;;;;;;;;44.30;39.40;;;;;;5056227;28;20032;-74
2021/07/17 10:49:00;;;;;;;7.93;7.25;;;44.40;39.80;;;;;;5055500;28;20374;-73
2021/07/17 10:51:34;;;;;;;7.28;6.70;;;44.60;38.80;;;;;;5056037;28;20360;-73
2021/07/17 10:54:05;;;;;;;7.53;6.78;;;44.60;38.80;;;;;;5070853;28;20057;-73
2021/07/17 10:56:31;;;;;;;7.20;6.47;;;44.70;38.60;;;;;;5055470;28;20455;-73
2021/07/17 10:58:57;;;;;;;8.07;6.72;;;44.80;38.60;;;;;;5055291;28;20366;-72
2021/07/17 11:01:24;;;;;;;8.18;7.38;;;44.90;38.40;;;;;;5055317;28;20021;-73
2021/07/17 11:03:51;;;;;;;11.05;6.90;;;45.00;38.30;;;;;;5055372;28;20112;-73
2021/07/17 11:06:36;;;;;;;7.50;6.88;;;45.20;38.30;;;;;;5055091;28;20021;-75
2021/07/17 11:09:24;;;;;;;7.40;6.47;;;45.50;38.30;;;;;;5054949;28;20029;-73
2021/07/17 11:11:50;;;;;;;8.15;7.35;;;45.90;38.10;;;;;;5055207;28;20474;-73
2021/07/17 11:14:16;;;;;;;7.90;7.13;;;46.10;37.90;;;;;;5054846;28;20033;-74
2021/07/17 11:16:49;;;;;;;8.25;6.60;;;46.10;37.80;;;;;;5055374;28;20025;-73
2021/07/17 11:19:25;;;;;;;7.75;6.90;;;46.00;37.50;;;;;;5055006;28;20063;-73
2021/07/17 11:21:52;;;;;;;7.38;6.78;;;45.50;37.50;;;;;;5054982;28;20029;-73
2021/07/17 11:24:20;;;;;;;8.10;6.95;;;44.80;37.70;;;;;;5070379;28;20033;-74
2021/07/17 11:26:46;;;;;;;8.02;7.00;;;44.10;37.70;;;;;;5054722;28;20029;-73
2021/07/17 11:29:13;;;;;;;7.40;6.72;;;43.40;38.10;;;;;;5055270;28;20094;-73
2021/07/17 11:31:43;;;;;;;7.40;6.70;;;42.90;38.70;;;;;;5055050;28;20021;-73
2021/07/17 11:36:39;;;;;;;8.18;7.30;;;42.60;39.50;;;;;;5054717;28;20033;-74
2021/07/17 11:39:08;;;;;;;8.60;7.05;;;43.00;39.50;;;;;;5054498;28;20032;-74
2021/07/17 11:41:34;;;;;;;7.28;6.68;;;43.70;39.30;;;;;;5054382;28;20044;-73
2021/07/17 11:44:00;;;;;;;8.98;7.35;;;44.50;39.00;;;;;;5054503;28;20025;-73
2021/07/17 11:46:27;;;;;;;8.88;6.40;;;45.10;38.40;;;;;;5054971;28;20029;-73
2021/07/17 11:49:09;;;;;;;7.47;6.53;;;45.40;37.80;;;;;;5054722;28;20083;-73
2021/07/17 11:51:53;;;;;;;9.55;6.72;;;45.60;37.60;;;;;;5054265;28;20352;-73
2021/07/17 11:54:44;;;;;;;7.80;6.65;;;45.40;37.60;;;;;;5054821;28;20154;-76
2021/07/17 11:57:38;;;;;;;8.13;6.60;;;44.80;37.40;;;;;;5051489;28;20045;-73
2021/07/17 12:00:19;;;;;;;8.52;7.10;;;44.60;37.80;;;;;;5054572;28;20045;-73
2021/07/17 12:02:52;;;;;;;7.78;6.60;;;44.70;37.90;;;;;;5055017;28;20036;-73
2021/07/17 12:05:19;;;;;;;7.20;6.50;;;45.20;37.80;;;;;;5054580;28;20452;-73
2021/07/17 12:07:46;;;;;;;7.15;6.45;;;45.80;37.70;;;;;;5054924;28;20494;-74
2021/07/17 12:10:13;;;;;;;6.97;6.38;;;46.60;37.60;;;;;;5054946;28;20024;-72
2021/07/17 12:12:40;;;;;;;7.57;6.88;;;47.20;37.20;;;;;;5054353;28;20029;-73
2021/07/17 12:15:10;;;;;;;9.27;6.85;;;47.70;36.60;;;;;;5054261;28;20029;-74
2021/07/17 12:17:39;;;;;;;8.13;6.50;;;48.10;36.00;;;;;;5054733;28;20103;-73
2021/07/17 12:20:04;;;;;;;7.00;6.30;;;48.50;35.60;;;;;;5054149;28;20490;-73
2021/07/17 12:22:30;;;;;;;6.93;6.30;;;48.70;35.50;;;;;;5054728;28;20029;-74
2021/07/17 12:25:09;;;;;;;7.15;6.38;;;49.00;35.00;;;;;;5054057;28;20479;-74
2021/07/17 12:27:51;;;;;;;6.85;6.15;;;49.30;34.80;;;;;;5054871;28;20044;-74
2021/07/17 12:30:17;;;;;;;;;;;49.50;34.70;;;;;;5054646;28;20025;-74
2021/07/17 12:32:43;;;;;;;8.80;6.28;;;49.40;35.10;;;;;;5054361;28;20362;-74
2021/07/17 12:35:09;;;;;;;7.40;6.80;;;49.10;35.00;;;;;;5052811;28;20485;-73
2021/07/17 12:37:35;;;;;;;7.63;6.82;;;48.60;35.00;;;;;;5053529;28;20535;-73